sensor_id;sensor_type;location;lat;lon;timestamp;P1;durP1;ratioP1;P2;durP2;ratioP2
47796;SDS011;33558;50.922;14.068;2022-10-30T00:00:00;52.20;;;25.93;;
47796;SDS011;33558;50.922;14.068;2022-10-30T00:02:38;48.80;;;24.73;;
47796;SDS011;33558;50.922;14.068;2022-10-30T00:05:05;42.20;;;24.43;;
47796;SDS011;33558;50.922;14.068;2022-10-30T00:07:33;49.83;;;25.80;;
47796;SDS011;33558;50.922;14.068;2022-10-30T00:10:00;45.00;;;24.93;;
47796;SDS011;33558;50.922;14.068;2022-10-30T00:12:27;43.87;;;22.83;;
47796;SDS011;33558;50.922;14.068;2022-10-30T00:14:55;46.03;;;24.23;;
47796;SDS011;33558;50.922;14.068;2022-10-30T00:17:22;39.73;;;22.40;;
47796;SDS011;33558;50.922;14.068;2022-10-30T00:19:50;44.67;;;23.80;;
47796;SDS011;33558;50.922;14.068;2022-10-30T00:22:17;45.13;;;24.03;;
47796;SDS011;33558;50.922;14.068;2022-10-30T00:24:44;41.37;;;23.73;;
47796;SDS011;33558;50.922;14.068;2022-10-30T00:27:11;40.90;;;24.97;;
47796;SDS011;33558;50.922;14.068;2022-10-30T00:29:38;44.73;;;23.43;;
47796;SDS011;33558;50.922;14.068;2022-10-30T00:32:14;38.33;;;23.35;;
47796;SDS011;33558;50.922;14.068;2022-10-30T00:34:41;36.07;;;22.60;;
47796;SDS011;33558;50.922;14.068;2022-10-30T00:37:10;41.93;;;23.83;;
47796;SDS011;33558;50.922;14.068;2022-10-30T00:39:39;41.57;;;23.93;;
47796;SDS011;33558;50.922;14.068;2022-10-30T00:42:09;39.13;;;22.13;;
47796;SDS011;33558;50.922;14.068;2022-10-30T00:44:40;39.47;;;23.40;;
47796;SDS011;33558;50.922;14.068;2022-10-30T00:47:12;44.80;;;24.67;;
47796;SDS011;33558;50.922;14.068;2022-10-30T00:49:46;38.90;;;22.47;;
47796;SDS011;33558;50.922;14.068;2022-10-30T00:52:17;36.93;;;22.50;;
47796;SDS011;33558;50.922;14.068;2022-10-30T00:54:46;44.00;;;24.20;;
47796;SDS011;33558;50.922;14.068;2022-10-30T00:57:13;43.03;;;24.23;;
47796;SDS011;33558;50.922;14.068;2022-10-30T00:59:40;37.20;;;22.43;;
47796;SDS011;33558;50.922;14.068;2022-10-30T01:02:11;44.37;;;23.37;;
47796;SDS011;33558;50.922;14.068;2022-10-30T01:04:44;41.07;;;23.43;;
47796;SDS011;33558;50.922;14.068;2022-10-30T01:07:12;43.23;;;24.87;;
47796;SDS011;33558;50.922;14.068;2022-10-30T01:09:46;46.37;;;24.83;;
47796;SDS011;33558;50.922;14.068;2022-10-30T01:12:20;40.33;;;23.90;;
47796;SDS011;33558;50.922;14.068;2022-10-30T01:14:48;39.17;;;23.43;;
47796;SDS011;33558;50.922;14.068;2022-10-30T01:17:27;41.60;;;23.17;;
47796;SDS011;33558;50.922;14.068;2022-10-30T01:20:17;38.00;;;22.63;;
47796;SDS011;33558;50.922;14.068;2022-10-30T01:22:55;38.73;;;21.90;;
47796;SDS011;33558;50.922;14.068;2022-10-30T01:25:33;42.53;;;22.13;;
47796;SDS011;33558;50.922;14.068;2022-10-30T01:28:09;40.80;;;23.07;;
47796;SDS011;33558;50.922;14.068;2022-10-30T01:30:49;37.87;;;21.60;;
47796;SDS011;33558;50.922;14.068;2022-10-30T01:33:25;34.33;;;21.97;;
47796;SDS011;33558;50.922;14.068;2022-10-30T01:36:03;41.73;;;23.10;;
47796;SDS011;33558;50.922;14.068;2022-10-30T01:38:35;38.30;;;22.60;;
47796;SDS011;33558;50.922;14.068;2022-10-30T01:41:08;40.17;;;22.97;;
47796;SDS011;33558;50.922;14.068;2022-10-30T01:43:34;35.30;;;21.20;;
47796;SDS011;33558;50.922;14.068;2022-10-30T01:46:09;37.77;;;22.23;;
47796;SDS011;33558;50.922;14.068;2022-10-30T01:48:52;44.33;;;23.20;;
47796;SDS011;33558;50.922;14.068;2022-10-30T01:51:29;37.67;;;21.87;;
47796;SDS011;33558;50.922;14.068;2022-10-30T01:54:10;38.40;;;22.93;;
47796;SDS011;33558;50.922;14.068;2022-10-30T02:18:23;53.70;;;26.67;;
47796;SDS011;33558;50.922;14.068;2022-10-30T02:20:51;44.53;;;24.93;;
47796;SDS011;33558;50.922;14.068;2022-10-30T02:23:19;43.97;;;24.60;;
47796;SDS011;33558;50.922;14.068;2022-10-30T02:25:48;50.00;;;26.23;;
47796;SDS011;33558;50.922;14.068;2022-10-30T02:28:15;46.57;;;23.50;;
47796;SDS011;33558;50.922;14.068;2022-10-30T02:30:42;42.60;;;24.20;;
47796;SDS011;33558;50.922;14.068;2022-10-30T02:33:09;38.53;;;23.67;;
47796;SDS011;33558;50.922;14.068;2022-10-30T02:35:36;37.27;;;22.77;;
47796;SDS011;33558;50.922;14.068;2022-10-30T02:38:05;41.07;;;24.13;;
47796;SDS011;33558;50.922;14.068;2022-10-30T02:40:32;40.23;;;22.93;;
47796;SDS011;33558;50.922;14.068;2022-10-30T02:42:59;44.40;;;24.67;;
47796;SDS011;33558;50.922;14.068;2022-10-30T02:45:26;43.93;;;24.33;;
47796;SDS011;33558;50.922;14.068;2022-10-30T02:47:53;46.60;;;24.73;;
47796;SDS011;33558;50.922;14.068;2022-10-30T02:50:20;43.60;;;24.20;;
47796;SDS011;33558;50.922;14.068;2022-10-30T02:52:50;40.53;;;23.30;;
47796;SDS011;33558;50.922;14.068;2022-10-30T02:55:18;46.13;;;24.63;;
47796;SDS011;33558;50.922;14.068;2022-10-30T02:57:46;43.93;;;25.27;;
47796;SDS011;33558;50.922;14.068;2022-10-30T03:00:13;41.73;;;23.73;;
47796;SDS011;33558;50.922;14.068;2022-10-30T03:02:41;48.27;;;24.73;;
47796;SDS011;33558;50.922;14.068;2022-10-30T03:05:08;47.27;;;24.77;;
47796;SDS011;33558;50.922;14.068;2022-10-30T03:07:35;47.40;;;25.17;;
47796;SDS011;33558;50.922;14.068;2022-10-30T03:10:01;43.83;;;22.90;;
47796;SDS011;33558;50.922;14.068;2022-10-30T03:12:31;38.30;;;23.87;;
47796;SDS011;33558;50.922;14.068;2022-10-30T03:14:58;44.20;;;25.07;;
47796;SDS011;33558;50.922;14.068;2022-10-30T03:17:25;44.10;;;23.80;;
47796;SDS011;33558;50.922;14.068;2022-10-30T03:19:52;40.13;;;23.10;;
47796;SDS011;33558;50.922;14.068;2022-10-30T03:22:19;44.77;;;24.27;;
47796;SDS011;33558;50.922;14.068;2022-10-30T03:24:46;39.27;;;22.70;;
47796;SDS011;33558;50.922;14.068;2022-10-30T03:27:12;42.13;;;23.60;;
47796;SDS011;33558;50.922;14.068;2022-10-30T03:29:40;39.97;;;24.33;;
47796;SDS011;33558;50.922;14.068;2022-10-30T03:32:07;40.73;;;22.83;;
47796;SDS011;33558;50.922;14.068;2022-10-30T03:34:42;37.73;;;22.83;;
47796;SDS011;33558;50.922;14.068;2022-10-30T03:37:09;44.00;;;24.57;;
47796;SDS011;33558;50.922;14.068;2022-10-30T03:39:36;38.23;;;22.33;;
47796;SDS011;33558;50.922;14.068;2022-10-30T03:42:03;38.83;;;23.00;;
47796;SDS011;33558;50.922;14.068;2022-10-30T03:44:29;39.93;;;22.00;;
47796;SDS011;33558;50.922;14.068;2022-10-30T03:46:58;38.20;;;23.47;;
47796;SDS011;33558;50.922;14.068;2022-10-30T03:49:27;40.27;;;24.50;;
47796;SDS011;33558;50.922;14.068;2022-10-30T03:51:55;47.20;;;24.43;;
47796;SDS011;33558;50.922;14.068;2022-10-30T03:54:24;39.07;;;24.13;;
47796;SDS011;33558;50.922;14.068;2022-10-30T03:56:51;35.70;;;23.20;;
47796;SDS011;33558;50.922;14.068;2022-10-30T03:59:19;39.70;;;22.37;;
47796;SDS011;33558;50.922;14.068;2022-10-30T04:02:06;42.60;;;23.42;;
47796;SDS011;33558;50.922;14.068;2022-10-30T04:04:33;40.83;;;20.03;;
47796;SDS011;33558;50.922;14.068;2022-10-30T04:07:00;37.83;;;22.87;;
47796;SDS011;33558;50.922;14.068;2022-10-30T04:09:27;41.53;;;21.83;;
47796;SDS011;33558;50.922;14.068;2022-10-30T04:11:54;37.90;;;21.70;;
47796;SDS011;33558;50.922;14.068;2022-10-30T04:14:21;40.03;;;22.40;;
47796;SDS011;33558;50.922;14.068;2022-10-30T04:16:48;37.40;;;21.47;;
47796;SDS011;33558;50.922;14.068;2022-10-30T04:19:17;38.53;;;23.93;;
47796;SDS011;33558;50.922;14.068;2022-10-30T04:21:45;40.00;;;23.20;;
47796;SDS011;33558;50.922;14.068;2022-10-30T04:24:14;38.53;;;22.73;;
47796;SDS011;33558;50.922;14.068;2022-10-30T04:26:45;32.03;;;22.20;;
47796;SDS011;33558;50.922;14.068;2022-10-30T04:29:13;40.73;;;22.67;;
47796;SDS011;33558;50.922;14.068;2022-10-30T04:31:41;35.43;;;23.80;;
47796;SDS011;33558;50.922;14.068;2022-10-30T04:34:11;36.93;;;22.70;;
47796;SDS011;33558;50.922;14.068;2022-10-30T04:36:40;37.20;;;22.30;;
47796;SDS011;33558;50.922;14.068;2022-10-30T04:39:08;32.13;;;21.23;;
47796;SDS011;33558;50.922;14.068;2022-10-30T04:41:37;40.27;;;22.73;;
47796;SDS011;33558;50.922;14.068;2022-10-30T04:44:12;35.53;;;22.67;;
47796;SDS011;33558;50.922;14.068;2022-10-30T04:46:40;43.37;;;24.80;;
47796;SDS011;33558;50.922;14.068;2022-10-30T04:49:09;40.53;;;24.23;;
47796;SDS011;33558;50.922;14.068;2022-10-30T04:51:41;36.40;;;21.57;;
47796;SDS011;33558;50.922;14.068;2022-10-30T04:54:10;40.20;;;22.83;;
47796;SDS011;33558;50.922;14.068;2022-10-30T04:56:38;44.20;;;24.70;;
47796;SDS011;33558;50.922;14.068;2022-10-30T04:59:07;43.43;;;26.10;;
47796;SDS011;33558;50.922;14.068;2022-10-30T05:01:36;47.63;;;25.70;;
47796;SDS011;33558;50.922;14.068;2022-10-30T05:04:29;32.27;;;21.40;;
47796;SDS011;33558;50.922;14.068;2022-10-30T05:13:38;44.23;;;23.17;;
47796;SDS011;33558;50.922;14.068;2022-10-30T05:16:12;45.47;;;27.93;;
47796;SDS011;33558;50.922;14.068;2022-10-30T05:18:39;40.10;;;24.60;;
47796;SDS011;33558;50.922;14.068;2022-10-30T05:21:06;52.47;;;26.30;;
47796;SDS011;33558;50.922;14.068;2022-10-30T05:23:33;43.07;;;23.97;;
47796;SDS011;33558;50.922;14.068;2022-10-30T05:26:02;45.47;;;25.67;;
47796;SDS011;33558;50.922;14.068;2022-10-30T05:28:29;36.23;;;22.70;;
47796;SDS011;33558;50.922;14.068;2022-10-30T05:30:58;38.00;;;23.27;;
47796;SDS011;33558;50.922;14.068;2022-10-30T05:33:55;36.27;;;21.90;;
47796;SDS011;33558;50.922;14.068;2022-10-30T05:40:14;42.57;;;23.93;;
47796;SDS011;33558;50.922;14.068;2022-10-30T05:42:43;42.67;;;24.47;;
47796;SDS011;33558;50.922;14.068;2022-10-30T05:45:13;39.70;;;24.43;;
47796;SDS011;33558;50.922;14.068;2022-10-30T05:47:48;38.17;;;23.80;;
47796;SDS011;33558;50.922;14.068;2022-10-30T05:50:21;43.57;;;24.90;;
47796;SDS011;33558;50.922;14.068;2022-10-30T05:53:11;49.53;;;25.33;;
47796;SDS011;33558;50.922;14.068;2022-10-30T05:55:43;44.07;;;26.53;;
47796;SDS011;33558;50.922;14.068;2022-10-30T05:58:20;48.33;;;28.90;;
47796;SDS011;33558;50.922;14.068;2022-10-30T06:00:48;46.30;;;27.43;;
47796;SDS011;33558;50.922;14.068;2022-10-30T06:03:29;53.93;;;28.63;;
47796;SDS011;33558;50.922;14.068;2022-10-30T06:06:22;44.27;;;26.03;;
47796;SDS011;33558;50.922;14.068;2022-10-30T06:13:08;43.28;;;25.38;;
47796;SDS011;33558;50.922;14.068;2022-10-30T06:24:04;46.33;;;26.43;;
47796;SDS011;33558;50.922;14.068;2022-10-30T06:27:23;42.77;;;25.20;;
47796;SDS011;33558;50.922;14.068;2022-10-30T06:29:58;47.00;;;28.77;;
47796;SDS011;33558;50.922;14.068;2022-10-30T06:32:58;47.17;;;28.07;;
47796;SDS011;33558;50.922;14.068;2022-10-30T07:07:48;42.10;;;26.23;;
47796;SDS011;33558;50.922;14.068;2022-10-30T07:10:34;39.40;;;26.13;;
47796;SDS011;33558;50.922;14.068;2022-10-30T07:13:25;41.97;;;27.07;;
47796;SDS011;33558;50.922;14.068;2022-10-30T07:18:53;43.17;;;27.60;;
47796;SDS011;33558;50.922;14.068;2022-10-30T07:24:45;39.20;;;25.88;;
47796;SDS011;33558;50.922;14.068;2022-10-30T07:27:28;36.15;;;25.05;;
47796;SDS011;33558;50.922;14.068;2022-10-30T07:30:33;33.15;;;22.48;;
47796;SDS011;33558;50.922;14.068;2022-10-30T07:33:18;38.10;;;23.48;;
47796;SDS011;33558;50.922;14.068;2022-10-30T07:36:14;33.90;;;23.70;;
47796;SDS011;33558;50.922;14.068;2022-10-30T07:39:21;32.80;;;23.08;;
47796;SDS011;33558;50.922;14.068;2022-10-30T07:42:16;31.83;;;22.58;;
47796;SDS011;33558;50.922;14.068;2022-10-30T07:49:24;28.63;;;20.48;;
47796;SDS011;33558;50.922;14.068;2022-10-30T07:52:57;32.38;;;20.98;;
47796;SDS011;33558;50.922;14.068;2022-10-30T08:15:57;30.80;;;21.92;;
47796;SDS011;33558;50.922;14.068;2022-10-30T08:19:45;28.17;;;19.60;;
47796;SDS011;33558;50.922;14.068;2022-10-30T08:26:20;30.63;;;21.38;;
47796;SDS011;33558;50.922;14.068;2022-10-30T08:28:54;28.58;;;20.15;;
47796;SDS011;33558;50.922;14.068;2022-10-30T08:43:34;27.15;;;18.98;;
47796;SDS011;33558;50.922;14.068;2022-10-30T08:55:21;26.92;;;19.30;;
47796;SDS011;33558;50.922;14.068;2022-10-30T08:58:40;26.92;;;19.40;;
47796;SDS011;33558;50.922;14.068;2022-10-30T09:02:18;26.15;;;19.08;;
47796;SDS011;33558;50.922;14.068;2022-10-30T09:09:42;30.00;;;21.40;;
47796;SDS011;33558;50.922;14.068;2022-10-30T09:16:36;29.58;;;19.80;;
47796;SDS011;33558;50.922;14.068;2022-10-30T09:27:14;29.42;;;18.90;;
47796;SDS011;33558;50.922;14.068;2022-10-30T12:41:15;24.10;;;16.67;;
47796;SDS011;33558;50.922;14.068;2022-10-30T12:43:47;19.73;;;15.85;;
47796;SDS011;33558;50.922;14.068;2022-10-30T12:46:23;23.23;;;16.73;;
47796;SDS011;33558;50.922;14.068;2022-10-30T12:48:55;22.13;;;17.40;;
47796;SDS011;33558;50.922;14.068;2022-10-30T12:51:26;22.90;;;16.70;;
47796;SDS011;33558;50.922;14.068;2022-10-30T12:53:56;22.55;;;16.30;;
47796;SDS011;33558;50.922;14.068;2022-10-30T12:56:29;24.33;;;17.70;;
47796;SDS011;33558;50.922;14.068;2022-10-30T16:08:51;34.60;;;22.55;;
47796;SDS011;33558;50.922;14.068;2022-10-30T16:11:18;40.92;;;23.67;;
47796;SDS011;33558;50.922;14.068;2022-10-30T16:13:47;33.00;;;20.90;;
47796;SDS011;33558;50.922;14.068;2022-10-30T16:16:16;38.83;;;23.83;;
47796;SDS011;33558;50.922;14.068;2022-10-30T16:18:46;36.50;;;24.00;;
47796;SDS011;33558;50.922;14.068;2022-10-30T16:21:14;35.78;;;24.15;;
47796;SDS011;33558;50.922;14.068;2022-10-30T16:23:45;32.60;;;24.45;;
47796;SDS011;33558;50.922;14.068;2022-10-30T16:26:22;39.38;;;25.20;;
47796;SDS011;33558;50.922;14.068;2022-10-30T16:28:54;36.60;;;25.48;;
47796;SDS011;33558;50.922;14.068;2022-10-30T16:31:22;38.80;;;26.70;;
47796;SDS011;33558;50.922;14.068;2022-10-30T16:33:49;40.15;;;26.98;;
47796;SDS011;33558;50.922;14.068;2022-10-30T16:36:16;37.53;;;25.02;;
47796;SDS011;33558;50.922;14.068;2022-10-30T16:38:45;38.17;;;25.58;;
47796;SDS011;33558;50.922;14.068;2022-10-30T16:41:13;41.72;;;26.52;;
47796;SDS011;33558;50.922;14.068;2022-10-30T16:43:42;42.65;;;27.98;;
47796;SDS011;33558;50.922;14.068;2022-10-30T16:49:02;44.30;;;27.87;;
47796;SDS011;33558;50.922;14.068;2022-10-30T16:51:31;44.33;;;28.55;;
47796;SDS011;33558;50.922;14.068;2022-10-30T16:53:58;44.30;;;28.55;;
47796;SDS011;33558;50.922;14.068;2022-10-30T16:56:26;47.87;;;28.77;;
47796;SDS011;33558;50.922;14.068;2022-10-30T16:59:05;43.60;;;28.23;;
47796;SDS011;33558;50.922;14.068;2022-10-30T17:01:34;39.10;;;26.27;;
47796;SDS011;33558;50.922;14.068;2022-10-30T17:04:01;48.08;;;30.85;;
47796;SDS011;33558;50.922;14.068;2022-10-30T17:06:34;46.10;;;29.73;;
47796;SDS011;33558;50.922;14.068;2022-10-30T17:09:05;44.80;;;29.23;;
47796;SDS011;33558;50.922;14.068;2022-10-30T17:11:35;48.17;;;30.37;;
47796;SDS011;33558;50.922;14.068;2022-10-30T17:28:50;41.80;;;28.50;;
47796;SDS011;33558;50.922;14.068;2022-10-30T17:31:18;49.13;;;31.70;;
47796;SDS011;33558;50.922;14.068;2022-10-30T17:33:46;44.17;;;30.27;;
47796;SDS011;33558;50.922;14.068;2022-10-30T17:36:14;46.00;;;31.43;;
47796;SDS011;33558;50.922;14.068;2022-10-30T17:38:41;53.60;;;33.83;;
47796;SDS011;33558;50.922;14.068;2022-10-30T17:41:09;65.37;;;40.77;;
47796;SDS011;33558;50.922;14.068;2022-10-30T17:43:46;90.43;;;56.70;;
47796;SDS011;33558;50.922;14.068;2022-10-30T17:46:15;84.77;;;58.10;;
47796;SDS011;33558;50.922;14.068;2022-10-30T17:48:42;86.40;;;57.40;;
47796;SDS011;33558;50.922;14.068;2022-10-30T17:51:10;78.23;;;48.83;;
47796;SDS011;33558;50.922;14.068;2022-10-30T17:53:38;71.17;;;44.67;;
47796;SDS011;33558;50.922;14.068;2022-10-30T17:56:09;76.80;;;42.93;;
47796;SDS011;33558;50.922;14.068;2022-10-30T17:58:38;67.17;;;43.57;;
47796;SDS011;33558;50.922;14.068;2022-10-30T18:01:05;64.17;;;40.87;;
47796;SDS011;33558;50.922;14.068;2022-10-30T18:03:33;56.13;;;37.57;;
47796;SDS011;33558;50.922;14.068;2022-10-30T18:06:00;62.40;;;39.27;;
47796;SDS011;33558;50.922;14.068;2022-10-30T18:08:28;60.83;;;37.40;;
47796;SDS011;33558;50.922;14.068;2022-10-30T18:10:55;59.30;;;35.97;;
47796;SDS011;33558;50.922;14.068;2022-10-30T18:13:22;61.03;;;35.90;;
47796;SDS011;33558;50.922;14.068;2022-10-30T18:15:53;59.57;;;35.20;;
47796;SDS011;33558;50.922;14.068;2022-10-30T18:18:21;60.67;;;36.70;;
47796;SDS011;33558;50.922;14.068;2022-10-30T18:20:50;55.57;;;37.90;;
47796;SDS011;33558;50.922;14.068;2022-10-30T18:23:17;66.63;;;40.13;;
47796;SDS011;33558;50.922;14.068;2022-10-30T18:25:46;63.67;;;39.00;;
47796;SDS011;33558;50.922;14.068;2022-10-30T18:28:15;66.30;;;40.10;;
47796;SDS011;33558;50.922;14.068;2022-10-30T18:30:44;60.47;;;38.77;;
47796;SDS011;33558;50.922;14.068;2022-10-30T18:33:16;58.03;;;38.13;;
47796;SDS011;33558;50.922;14.068;2022-10-30T18:35:47;55.00;;;36.13;;
47796;SDS011;33558;50.922;14.068;2022-10-30T18:38:15;62.47;;;38.50;;
47796;SDS011;33558;50.922;14.068;2022-10-30T18:40:45;59.57;;;38.97;;
47796;SDS011;33558;50.922;14.068;2022-10-30T18:43:17;60.13;;;36.00;;
47796;SDS011;33558;50.922;14.068;2022-10-30T18:45:47;60.47;;;37.57;;
47796;SDS011;33558;50.922;14.068;2022-10-30T19:11:08;62.15;;;33.20;;
47796;SDS011;33558;50.922;14.068;2022-10-30T19:22:26;56.40;;;35.73;;
47796;SDS011;33558;50.922;14.068;2022-10-30T19:30:08;63.97;;;37.80;;
47796;SDS011;33558;50.922;14.068;2022-10-30T19:36:36;71.93;;;44.57;;
47796;SDS011;33558;50.922;14.068;2022-10-30T19:39:41;66.37;;;40.90;;
47796;SDS011;33558;50.922;14.068;2022-10-30T19:45:24;68.97;;;42.93;;
47796;SDS011;33558;50.922;14.068;2022-10-30T19:48:06;66.87;;;42.77;;
47796;SDS011;33558;50.922;14.068;2022-10-30T19:51:17;71.57;;;42.63;;
47796;SDS011;33558;50.922;14.068;2022-10-30T19:54:32;65.23;;;41.87;;
47796;SDS011;33558;50.922;14.068;2022-10-30T19:57:20;60.37;;;38.40;;
47796;SDS011;33558;50.922;14.068;2022-10-30T20:00:12;54.77;;;34.47;;
47796;SDS011;33558;50.922;14.068;2022-10-30T20:03:06;66.03;;;35.73;;
47796;SDS011;33558;50.922;14.068;2022-10-30T20:06:45;69.37;;;34.60;;
47796;SDS011;33558;50.922;14.068;2022-10-30T20:09:17;62.23;;;36.20;;
47796;SDS011;33558;50.922;14.068;2022-10-30T20:12:09;59.13;;;35.47;;
47796;SDS011;33558;50.922;14.068;2022-10-30T20:15:10;55.17;;;32.50;;
47796;SDS011;33558;50.922;14.068;2022-10-30T20:22:12;51.93;;;32.27;;
47796;SDS011;33558;50.922;14.068;2022-10-30T20:24:51;50.10;;;31.73;;
47796;SDS011;33558;50.922;14.068;2022-10-30T20:27:18;53.07;;;30.27;;
47796;SDS011;33558;50.922;14.068;2022-10-30T20:29:44;57.33;;;33.63;;
47796;SDS011;33558;50.922;14.068;2022-10-30T20:32:11;56.50;;;35.70;;
47796;SDS011;33558;50.922;14.068;2022-10-30T20:34:38;56.87;;;30.30;;
47796;SDS011;33558;50.922;14.068;2022-10-30T20:37:05;50.67;;;30.43;;
47796;SDS011;33558;50.922;14.068;2022-10-30T20:39:33;51.33;;;30.37;;
47796;SDS011;33558;50.922;14.068;2022-10-30T20:41:59;51.67;;;29.87;;
47796;SDS011;33558;50.922;14.068;2022-10-30T20:44:26;46.50;;;28.67;;
47796;SDS011;33558;50.922;14.068;2022-10-30T20:46:53;52.03;;;29.97;;
47796;SDS011;33558;50.922;14.068;2022-10-30T20:49:20;54.93;;;31.00;;
47796;SDS011;33558;50.922;14.068;2022-10-30T20:51:46;58.03;;;32.60;;
47796;SDS011;33558;50.922;14.068;2022-10-30T20:54:13;54.40;;;29.20;;
47796;SDS011;33558;50.922;14.068;2022-10-30T20:56:41;52.00;;;31.77;;
47796;SDS011;33558;50.922;14.068;2022-10-30T20:59:09;54.77;;;30.77;;
47796;SDS011;33558;50.922;14.068;2022-10-30T21:01:36;48.23;;;28.37;;
47796;SDS011;33558;50.922;14.068;2022-10-30T21:04:03;52.47;;;27.40;;
47796;SDS011;33558;50.922;14.068;2022-10-30T21:06:30;49.90;;;29.53;;
47796;SDS011;33558;50.922;14.068;2022-10-30T21:08:57;51.43;;;29.57;;
47796;SDS011;33558;50.922;14.068;2022-10-30T21:11:24;60.00;;;31.83;;
47796;SDS011;33558;50.922;14.068;2022-10-30T21:13:52;54.17;;;29.73;;
47796;SDS011;33558;50.922;14.068;2022-10-30T21:16:21;45.83;;;27.70;;
47796;SDS011;33558;50.922;14.068;2022-10-30T21:18:49;48.83;;;28.90;;
47796;SDS011;33558;50.922;14.068;2022-10-30T21:21:16;47.30;;;28.47;;
47796;SDS011;33558;50.922;14.068;2022-10-30T21:23:44;51.87;;;29.70;;
47796;SDS011;33558;50.922;14.068;2022-10-30T21:26:11;59.93;;;30.90;;
47796;SDS011;33558;50.922;14.068;2022-10-30T21:28:38;49.97;;;27.90;;
47796;SDS011;33558;50.922;14.068;2022-10-30T21:31:09;51.37;;;29.03;;
47796;SDS011;33558;50.922;14.068;2022-10-30T21:33:37;47.77;;;27.33;;
47796;SDS011;33558;50.922;14.068;2022-10-30T21:36:04;50.57;;;28.37;;
47796;SDS011;33558;50.922;14.068;2022-10-30T21:38:31;48.93;;;28.80;;
47796;SDS011;33558;50.922;14.068;2022-10-30T21:40:59;49.37;;;27.97;;
47796;SDS011;33558;50.922;14.068;2022-10-30T21:43:25;49.20;;;28.90;;
47796;SDS011;33558;50.922;14.068;2022-10-30T21:45:52;50.13;;;27.97;;
47796;SDS011;33558;50.922;14.068;2022-10-30T21:48:20;55.97;;;27.67;;
47796;SDS011;33558;50.922;14.068;2022-10-30T21:50:47;51.43;;;28.30;;
47796;SDS011;33558;50.922;14.068;2022-10-30T21:53:14;49.73;;;28.30;;
47796;SDS011;33558;50.922;14.068;2022-10-30T21:55:40;45.97;;;27.47;;
47796;SDS011;33558;50.922;14.068;2022-10-30T21:58:07;48.47;;;27.00;;
47796;SDS011;33558;50.922;14.068;2022-10-30T22:00:34;47.47;;;27.43;;
47796;SDS011;33558;50.922;14.068;2022-10-30T22:03:01;47.40;;;28.23;;
47796;SDS011;33558;50.922;14.068;2022-10-30T22:05:30;46.17;;;26.50;;
47796;SDS011;33558;50.922;14.068;2022-10-30T22:07:57;47.60;;;26.17;;
47796;SDS011;33558;50.922;14.068;2022-10-30T22:10:24;44.33;;;26.10;;
47796;SDS011;33558;50.922;14.068;2022-10-30T22:12:50;47.47;;;26.47;;
47796;SDS011;33558;50.922;14.068;2022-10-30T22:15:17;47.97;;;25.93;;
47796;SDS011;33558;50.922;14.068;2022-10-30T22:17:44;45.83;;;26.77;;
47796;SDS011;33558;50.922;14.068;2022-10-30T22:20:11;42.40;;;24.43;;
47796;SDS011;33558;50.922;14.068;2022-10-30T22:22:39;40.13;;;25.27;;
47796;SDS011;33558;50.922;14.068;2022-10-30T22:25:06;40.97;;;23.20;;
47796;SDS011;33558;50.922;14.068;2022-10-30T22:27:33;43.87;;;25.97;;
47796;SDS011;33558;50.922;14.068;2022-10-30T22:30:00;42.40;;;23.80;;
47796;SDS011;33558;50.922;14.068;2022-10-30T22:32:27;42.13;;;26.27;;
47796;SDS011;33558;50.922;14.068;2022-10-30T22:34:53;40.80;;;23.47;;
47796;SDS011;33558;50.922;14.068;2022-10-30T22:37:21;57.13;;;27.63;;
47796;SDS011;33558;50.922;14.068;2022-10-30T22:39:49;45.40;;;24.83;;
47796;SDS011;33558;50.922;14.068;2022-10-30T22:42:16;43.40;;;25.23;;
47796;SDS011;33558;50.922;14.068;2022-10-30T22:44:42;50.10;;;25.37;;
47796;SDS011;33558;50.922;14.068;2022-10-30T22:47:09;45.87;;;26.03;;
47796;SDS011;33558;50.922;14.068;2022-10-30T22:49:36;46.70;;;24.70;;
47796;SDS011;33558;50.922;14.068;2022-10-30T22:52:03;42.37;;;24.10;;
47796;SDS011;33558;50.922;14.068;2022-10-30T22:54:29;39.50;;;21.73;;
47796;SDS011;33558;50.922;14.068;2022-10-30T22:56:58;41.50;;;23.77;;
47796;SDS011;33558;50.922;14.068;2022-10-30T22:59:24;42.23;;;24.03;;
47796;SDS011;33558;50.922;14.068;2022-10-30T23:01:51;43.90;;;25.07;;
47796;SDS011;33558;50.922;14.068;2022-10-30T23:04:18;42.10;;;24.57;;
47796;SDS011;33558;50.922;14.068;2022-10-30T23:06:45;48.07;;;25.20;;
47796;SDS011;33558;50.922;14.068;2022-10-30T23:09:13;48.87;;;24.37;;
47796;SDS011;33558;50.922;14.068;2022-10-30T23:11:41;39.33;;;24.47;;
47796;SDS011;33558;50.922;14.068;2022-10-30T23:14:09;40.37;;;23.77;;
47796;SDS011;33558;50.922;14.068;2022-10-30T23:16:36;39.23;;;20.83;;
47796;SDS011;33558;50.922;14.068;2022-10-30T23:19:03;39.70;;;22.40;;
47796;SDS011;33558;50.922;14.068;2022-10-30T23:21:30;36.00;;;22.10;;
47796;SDS011;33558;50.922;14.068;2022-10-30T23:23:57;40.63;;;21.60;;
47796;SDS011;33558;50.922;14.068;2022-10-30T23:26:24;39.03;;;23.07;;
47796;SDS011;33558;50.922;14.068;2022-10-30T23:28:53;35.50;;;20.43;;
47796;SDS011;33558;50.922;14.068;2022-10-30T23:31:23;43.90;;;22.10;;
47796;SDS011;33558;50.922;14.068;2022-10-30T23:33:52;39.27;;;21.93;;
47796;SDS011;33558;50.922;14.068;2022-10-30T23:36:19;36.23;;;21.07;;
47796;SDS011;33558;50.922;14.068;2022-10-30T23:38:49;41.10;;;22.07;;
47796;SDS011;33558;50.922;14.068;2022-10-30T23:41:16;41.00;;;21.43;;
47796;SDS011;33558;50.922;14.068;2022-10-30T23:43:43;38.20;;;21.67;;
47796;SDS011;33558;50.922;14.068;2022-10-30T23:46:10;35.00;;;21.00;;
47796;SDS011;33558;50.922;14.068;2022-10-30T23:48:38;39.57;;;22.83;;
47796;SDS011;33558;50.922;14.068;2022-10-30T23:51:05;28.93;;;19.10;;
47796;SDS011;33558;50.922;14.068;2022-10-30T23:53:33;35.03;;;20.37;;
47796;SDS011;33558;50.922;14.068;2022-10-30T23:56:00;35.93;;;20.50;;
47796;SDS011;33558;50.922;14.068;2022-10-30T23:58:27;35.60;;;19.97;;
